Time;durP1;ratioP1;P1;durP2;ratioP2;P2;SDS_P1;SDS_P2;PMS_P1;PMS_P2;Temp;Humidity;BMP_temperature;BMP_pressure;BME280_temperature;BME280_humidity;BME280_pressure;Samples;Min_cycle;Max_cycle;Signal;HPM_P1;HPM_P2
2021/11/16 00:01:26;;;;;;;22.40;11.20;;;;;;;4.75;100.00;97075.25;4979223;28;20034;-61
2021/11/16 00:03:55;;;;;;;27.48;12.00;;;;;;;4.71;100.00;97071.59;4982851;28;20042;-62
2021/11/16 00:06:23;;;;;;;24.70;11.63;;;;;;;4.67;100.00;97074.13;4978334;28;20427;-64
2021/11/16 00:08:49;;;;;;;28.40;11.48;;;;;;;4.68;100.00;97066.78;4981282;28;20050;-64
2021/11/16 00:11:15;;;;;;;26.40;11.77;;;;;;;4.62;100.00;97066.16;4978220;28;20045;-64
2021/11/16 00:13:41;;;;;;;23.88;11.63;;;;;;;4.49;100.00;97067.91;4982987;28;20038;-62
2021/11/16 00:16:07;;;;;;;22.92;10.55;;;;;;;4.54;100.00;97073.16;4976086;28;20089;-63
2021/11/16 00:18:32;;;;;;;26.42;11.45;;;;;;;4.62;100.00;97077.00;4980776;28;20054;-61
2021/11/16 00:20:59;;;;;;;33.17;12.43;;;;;;;4.53;100.00;97081.63;4981610;28;20455;-62
2021/11/16 00:23:33;;;;;;;28.45;12.85;;;;;;;4.51;100.00;97073.81;4976321;28;20043;-63
2021/11/16 00:26:00;;;;;;;23.85;10.88;;;;;;;4.58;100.00;97079.56;4973098;28;20077;-64
2021/11/16 00:28:27;;;;;;;24.25;11.60;;;;;;;4.65;100.00;97073.66;4976066;28;20053;-62
2021/11/16 00:30:53;;;;;;;24.75;11.35;;;;;;;4.52;100.00;97080.84;4963800;28;20038;-63
2021/11/16 00:33:23;;;;;;;25.83;12.52;;;;;;;4.34;100.00;97082.72;4973890;28;20522;-63
2021/11/16 00:35:55;;;;;;;25.23;12.30;;;;;;;4.37;100.00;97092.13;4983390;28;20038;-63
2021/11/16 00:38:22;;;;;;;28.30;11.50;;;;;;;4.48;100.00;97082.56;4983109;28;20030;-63
2021/11/16 00:40:48;;;;;;;28.40;11.73;;;;;;;4.62;100.00;97085.13;4981109;28;20493;-63
2021/11/16 00:43:15;;;;;;;28.13;13.98;;;;;;;4.57;100.00;97090.72;4974701;28;20475;-63
2021/11/16 00:45:43;;;;;;;28.42;10.55;;;;;;;4.56;100.00;97098.06;4980949;28;20081;-64
2021/11/16 00:48:09;;;;;;;25.83;12.10;;;;;;;4.63;100.00;97092.19;4975251;28;20038;-62
2021/11/16 00:50:39;;;;;;;28.60;10.98;;;;;;;4.60;100.00;97100.94;4980734;28;20503;-63
2021/11/16 00:53:05;;;;;;;28.50;12.38;;;;;;;4.68;100.00;97102.88;4974070;28;20078;-62
2021/11/16 00:55:31;;;;;;;23.35;10.85;;;;;;;4.53;100.00;97101.41;4980679;28;20026;-63
2021/11/16 00:57:57;;;;;;;27.25;11.68;;;;;;;4.07;100.00;97096.50;4979893;28;20038;-64
2021/11/16 01:00:23;;;;;;;27.75;12.40;;;;;;;3.90;100.00;97097.25;4975433;28;20057;-63
2021/11/16 01:02:48;;;;;;;27.33;11.98;;;;;;;3.74;100.00;97103.09;4979366;28;20042;-64
2021/11/16 01:05:14;;;;;;;37.53;13.20;;;;;;;3.75;100.00;97102.00;4975055;28;20046;-63
2021/11/16 01:07:42;;;;;;;29.42;12.80;;;;;;;3.67;100.00;97094.59;4978008;28;20109;-63
2021/11/16 01:10:11;;;;;;;31.83;13.65;;;;;;;3.58;100.00;97100.00;4973233;28;20046;-63
2021/11/16 01:12:37;;;;;;;29.40;13.52;;;;;;;3.55;100.00;97095.22;4980968;28;20379;-63
2021/11/16 01:15:06;;;;;;;35.15;13.23;;;;;;;3.61;100.00;97095.88;4978667;28;20053;-63
2021/11/16 01:17:33;;;;;;;30.95;12.15;;;;;;;3.83;100.00;97097.72;4980778;28;20101;-62
2021/11/16 01:19:59;;;;;;;29.38;13.00;;;;;;;3.86;100.00;97101.72;4980939;28;20057;-62
2021/11/16 01:22:25;;;;;;;31.08;12.68;;;;;;;3.65;100.00;97091.41;4975948;28;20043;-62
2021/11/16 01:24:51;;;;;;;30.75;12.98;;;;;;;3.58;100.00;97094.59;4981055;28;20698;-61
2021/11/16 01:27:19;;;;;;;32.95;13.77;;;;;;;3.61;100.00;97099.38;4976787;28;20097;-63
2021/11/16 01:29:50;;;;;;;37.25;13.25;;;;;;;3.70;100.00;97090.50;4982020;28;20042;-63
2021/11/16 01:32:38;;;;;;;31.50;12.23;;;;;;;3.78;100.00;97087.81;4977727;28;20050;-62
2021/11/16 01:35:04;;;;;;;29.08;12.82;;;;;;;3.94;100.00;97090.09;4981091;28;20046;-62
2021/11/16 01:37:30;;;;;;;32.15;13.13;;;;;;;4.00;100.00;97086.94;4982382;28;20121;-63
2021/11/16 01:39:57;;;;;;;32.88;14.02;;;;;;;3.87;100.00;97090.56;4991368;28;20046;-63
2021/11/16 01:42:23;;;;;;;32.47;12.77;;;;;;;3.70;100.00;97082.38;4981272;28;20496;-62
2021/11/16 01:44:50;;;;;;;28.70;11.95;;;;;;;3.61;100.00;97088.53;4979213;28;20042;-63
2021/11/16 01:47:17;;;;;;;33.45;13.15;;;;;;;3.43;100.00;97086.84;4976556;28;20064;-63
2021/11/16 01:49:43;;;;;;;34.35;14.07;;;;;;;3.40;100.00;97099.13;4981656;28;20046;-63
2021/11/16 01:52:08;;;;;;;36.78;14.45;;;;;;;3.42;100.00;97091.47;4977248;28;20447;-64
2021/11/16 01:54:35;;;;;;;36.03;14.55;;;;;;;3.43;100.00;97090.34;4980571;28;20047;-64
2021/11/16 01:57:01;;;;;;;45.05;21.15;;;;;;;3.38;100.00;97085.06;4981643;28;20043;-63
2021/11/16 01:59:27;;;;;;;41.25;17.27;;;;;;;3.42;100.00;97077.13;4975980;28;20435;-64
2021/11/16 02:01:54;;;;;;;34.67;13.93;;;;;;;3.40;100.00;97082.88;4993592;28;20034;-63
2021/11/16 02:04:22;;;;;;;35.88;14.75;;;;;;;3.39;100.00;97077.75;4976602;28;20496;-63
2021/11/16 02:06:48;;;;;;;34.80;13.57;;;;;;;3.44;100.00;97080.34;4981046;28;20056;-63
2021/11/16 02:09:16;;;;;;;41.00;14.70;;;;;;;3.45;100.00;97090.03;4973797;28;20518;-63
2021/11/16 02:11:42;;;;;;;40.65;15.23;;;;;;;3.52;100.00;97074.16;4981021;28;20042;-64
2021/11/16 02:14:13;;;;;;;32.90;13.00;;;;;;;3.72;100.00;97077.44;4975483;28;20515;-63
2021/11/16 02:16:39;;;;;;;31.83;12.82;;;;;;;3.73;100.00;97070.91;4979180;28;20046;-63
2021/11/16 02:19:07;;;;;;;36.58;13.05;;;;;;;3.69;100.00;97064.50;4976625;28;20043;-60
2021/11/16 02:21:34;;;;;;;34.10;13.15;;;;;;;3.76;100.00;97065.66;4983265;28;20124;-61
2021/11/16 02:24:00;;;;;;;32.20;13.98;;;;;;;3.68;100.00;97071.84;4994412;28;20065;-61
2021/11/16 02:26:26;;;;;;;32.92;12.07;;;;;;;3.62;100.00;97064.97;4984688;28;20049;-59
2021/11/16 02:28:53;;;;;;;36.70;14.95;;;;;;;3.45;100.00;97060.25;4980875;28;20042;-59
2021/11/16 02:31:19;;;;;;;36.60;13.15;;;;;;;3.45;100.00;97058.34;4973301;28;20049;-62
2021/11/16 02:33:45;;;;;;;40.80;14.85;;;;;;;3.44;100.00;97058.69;4981235;28;20038;-61
2021/11/16 02:36:12;;;;;;;34.45;13.98;;;;;;;3.42;100.00;97061.69;4972697;28;20039;-63
2021/11/16 02:38:38;;;;;;;44.10;16.95;;;;;;;3.48;100.00;97066.97;4966952;28;20081;-64
2021/11/16 02:41:05;;;;;;;34.85;13.38;;;;;;;3.45;100.00;97062.97;4975855;28;20050;-62
2021/11/16 02:43:32;;;;;;;101.45;47.42;;;;;;;3.41;100.00;97070.13;4980960;28;20046;-63
2021/11/16 02:45:58;;;;;;;39.17;17.50;;;;;;;3.37;100.00;97063.75;4980946;28;20507;-64
2021/11/16 02:48:24;;;;;;;39.35;14.07;;;;;;;3.33;100.00;97060.84;4977322;28;20100;-63
2021/11/16 02:51:00;;;;;;;37.03;14.48;;;;;;;3.50;100.00;97053.94;4981840;28;20069;-63
2021/11/16 02:53:26;;;;;;;31.38;13.95;;;;;;;3.48;100.00;97070.47;4975726;28;20050;-64
2021/11/16 02:55:53;;;;;;;31.65;12.60;;;;;;;3.44;100.00;97058.69;4977583;28;20519;-64
2021/11/16 02:58:20;;;;;;;30.40;12.68;;;;;;;3.47;100.00;97049.13;4979209;28;20041;-61
2021/11/16 03:00:50;;;;;;;32.08;13.35;;;;;;;3.45;100.00;97066.47;4983775;28;20392;-64
2021/11/16 03:03:17;;;;;;;33.70;13.00;;;;;;;3.39;100.00;97061.50;4978730;28;20042;-63
2021/11/16 03:05:43;;;;;;;32.90;11.70;;;;;;;3.39;100.00;97058.81;4983428;28;20042;-63
2021/11/16 03:08:17;;;;;;;32.72;12.05;;;;;;;3.34;100.00;97061.66;4979368;28;20046;-63
2021/11/16 03:10:43;;;;;;;34.92;13.07;;;;;;;3.33;100.00;97065.44;4983885;28;20054;-62
2021/11/16 03:13:10;;;;;;;37.60;14.00;;;;;;;3.29;100.00;97057.16;4979319;28;20043;-62
2021/11/16 03:15:35;;;;;;;34.80;13.52;;;;;;;3.28;100.00;97066.41;4983579;28;20137;-62
2021/11/16 03:18:02;;;;;;;34.40;13.95;;;;;;;3.31;100.00;97065.75;4984097;28;20180;-62
2021/11/16 03:20:28;;;;;;;38.42;13.90;;;;;;;3.29;100.00;97065.28;4979910;28;20045;-62
2021/11/16 03:23:08;;;;;;;38.00;13.68;;;;;;;3.32;100.00;97063.88;4977498;28;20146;-62
2021/11/16 03:25:36;;;;;;;34.08;13.88;;;;;;;3.40;100.00;97060.38;4981220;28;20044;-63
2021/11/16 03:28:06;;;;;;;34.08;13.18;;;;;;;3.47;100.00;97047.19;4986763;28;20042;-62
2021/11/16 03:30:33;;;;;;;30.92;12.77;;;;;;;3.61;100.00;97049.81;4987946;28;20141;-61
2021/11/16 03:32:59;;;;;;;30.50;12.48;;;;;;;3.78;100.00;97049.06;4975253;28;20046;-62
2021/11/16 03:35:24;;;;;;;29.85;12.15;;;;;;;3.87;100.00;97047.22;4977806;28;20061;-62
2021/11/16 03:37:54;;;;;;;31.52;12.35;;;;;;;4.04;100.00;97041.03;4982372;28;20090;-61
2021/11/16 03:40:21;;;;;;;24.40;10.65;;;;;;;4.18;100.00;97044.41;4975914;28;20087;-64
2021/11/16 03:42:48;;;;;;;26.45;11.02;;;;;;;4.27;100.00;97038.19;4980965;28;20042;-62
2021/11/16 03:45:17;;;;;;;23.67;10.77;;;;;;;4.34;100.00;97035.81;4977215;28;20113;-63
2021/11/16 03:47:44;;;;;;;24.50;11.17;;;;;;;4.44;100.00;97034.72;4976422;28;20061;-62
2021/11/16 03:50:14;;;;;;;24.02;11.50;;;;;;;4.46;100.00;97038.69;4989126;28;20285;-63
2021/11/16 03:52:42;;;;;;;22.75;10.50;;;;;;;4.39;100.00;97035.66;4993671;28;20043;-62
2021/11/16 03:55:11;;;;;;;26.13;10.13;;;;;;;4.04;100.00;97049.16;4976207;28;20499;-62
2021/11/16 03:57:38;;;;;;;27.15;11.10;;;;;;;3.93;100.00;97050.56;4981493;28;20197;-62
2021/11/16 04:00:16;;;;;;;24.48;10.23;;;;;;;3.93;100.00;97053.28;4977831;28;20081;-61
2021/11/16 04:02:42;;;;;;;23.88;11.48;;;;;;;3.78;100.00;97052.59;4981897;28;20633;-63
2021/11/16 04:05:08;;;;;;;22.85;10.25;;;;;;;3.79;100.00;97050.69;4978112;28;20050;-63
2021/11/16 04:07:35;;;;;;;26.92;10.93;;;;;;;3.78;100.00;97043.66;4980367;28;20104;-64
2021/11/16 04:10:04;;;;;;;25.13;11.35;;;;;;;3.87;100.00;97043.69;4981443;28;20042;-64
2021/11/16 04:12:31;;;;;;;23.83;10.90;;;;;;;4.02;100.00;97049.47;4976102;28;20185;-63
2021/11/16 04:14:56;;;;;;;26.45;12.35;;;;;;;4.15;100.00;97041.53;4982824;28;20155;-63
2021/11/16 04:17:22;;;;;;;25.58;11.68;;;;;;;4.19;100.00;97056.84;4973017;28;20921;-63
2021/11/16 04:19:47;;;;;;;24.92;11.50;;;;;;;4.21;100.00;97046.50;4979416;28;20054;-64
2021/11/16 04:22:13;;;;;;;23.20;10.75;;;;;;;4.34;100.00;97046.66;4974800;28;20514;-62
2021/11/16 04:24:38;;;;;;;24.35;10.70;;;;;;;4.41;100.00;97052.41;4983522;28;20038;-64
2021/11/16 04:27:05;;;;;;;22.73;10.98;;;;;;;4.50;100.00;97055.94;4979796;28;20504;-61
2021/11/16 04:29:30;;;;;;;21.58;9.73;;;;;;;4.54;100.00;97047.97;4983827;28;20727;-61
2021/11/16 04:31:57;;;;;;;22.98;9.35;;;;;;;4.50;100.00;97055.94;4980387;28;20080;-61
2021/11/16 04:34:22;;;;;;;22.20;10.05;;;;;;;4.55;100.00;97046.84;4977759;28;20944;-62
2021/11/16 04:36:48;;;;;;;22.35;10.30;;;;;;;4.57;100.00;97060.88;4982076;28;20057;-61
2021/11/16 04:39:14;;;;;;;24.23;10.75;;;;;;;4.64;100.00;97058.47;4966520;28;20511;-62
2021/11/16 04:41:40;;;;;;;21.17;9.75;;;;;;;4.69;100.00;97066.47;4963066;28;20066;-62
2021/11/16 04:44:07;;;;;;;22.40;9.57;;;;;;;4.69;100.00;97071.09;4975171;28;20057;-62
2021/11/16 04:46:33;;;;;;;21.13;9.68;;;;;;;4.67;100.00;97063.28;4981313;28;20054;-63
2021/11/16 04:54:38;;;;;;;21.48;9.85;;;;;;;4.46;100.00;97057.66;4977906;28;20500;-63
2021/11/16 05:02:41;;;;;;;22.35;9.95;;;;;;;4.48;100.00;97058.16;4942175;28;20065;-64
2021/11/16 05:05:17;;;;;;;23.13;11.40;;;;;;;4.58;100.00;97052.41;4958166;28;20047;-63
2021/11/16 05:07:48;;;;;;;21.35;10.43;;;;;;;4.68;100.00;97055.94;4987733;28;20069;-64
2021/11/16 05:10:14;;;;;;;20.35;9.05;;;;;;;4.68;100.00;97051.31;4989827;28;20077;-63
2021/11/16 05:12:40;;;;;;;21.10;9.73;;;;;;;4.66;100.00;97050.03;4982437;28;20113;-62
2021/11/16 05:15:14;;;;;;;21.50;9.88;;;;;;;4.62;100.00;97052.59;4978053;28;20466;-63
2021/11/16 05:17:42;;;;;;;23.05;10.02;;;;;;;4.54;100.00;97067.75;4982023;28;20145;-63
2021/11/16 05:20:08;;;;;;;27.35;10.43;;;;;;;4.40;100.00;97064.38;4975894;28;20066;-62
2021/11/16 05:22:35;;;;;;;21.45;9.73;;;;;;;4.25;100.00;97071.06;4980624;28;20046;-64
2021/11/16 05:25:01;;;;;;;24.95;10.90;;;;;;;4.09;100.00;97075.31;4981196;28;20047;-63
2021/11/16 05:27:27;;;;;;;27.48;11.23;;;;;;;3.95;100.00;97075.44;4971030;28;20046;-64
2021/11/16 05:29:52;;;;;;;25.60;10.65;;;;;;;4.06;100.00;97074.03;4981328;28;20099;-63
2021/11/16 05:32:18;;;;;;;29.67;10.38;;;;;;;4.33;100.00;97055.91;4973674;28;20042;-63
2021/11/16 05:34:44;;;;;;;21.13;10.55;;;;;;;4.41;100.00;97060.53;4981687;28;20046;-62
2021/11/16 05:37:10;;;;;;;25.58;11.38;;;;;;;4.47;100.00;97061.22;4975993;28;20042;-63
2021/11/16 05:39:36;;;;;;;22.98;9.82;;;;;;;4.59;100.00;97062.16;4978458;28;20131;-63
2021/11/16 05:42:02;;;;;;;25.05;9.48;;;;;;;4.56;100.00;97059.28;4981598;28;20043;-62
2021/11/16 05:44:32;;;;;;;22.35;9.90;;;;;;;4.40;100.00;97061.66;4978571;28;20073;-64
2021/11/16 05:46:58;;;;;;;;;;;;;;;4.31;100.00;97061.66;4982347;28;20042;-62
2021/11/16 05:49:25;;;;;;;18.58;9.05;;;;;;;4.38;100.00;97063.91;4977035;28;19924;-62
2021/11/16 05:51:50;;;;;;;23.25;9.45;;;;;;;4.44;100.00;97068.03;4979870;28;20058;-62
2021/11/16 05:54:18;;;;;;;20.05;10.05;;;;;;;4.50;100.00;97063.25;4975762;28;20474;-63
2021/11/16 05:56:44;;;;;;;26.85;9.82;;;;;;;4.53;100.00;97066.13;4977491;28;20049;-63
2021/11/16 05:59:10;;;;;;;21.25;9.68;;;;;;;4.53;100.00;97058.00;4974940;28;20039;-62
2021/11/16 06:01:36;;;;;;;24.38;9.85;;;;;;;4.56;100.00;97057.38;4980055;28;20571;-62
2021/11/16 06:04:02;;;;;;;19.27;9.60;;;;;;;4.59;100.00;97058.63;4980250;28;20053;-62
2021/11/16 06:06:32;;;;;;;22.20;9.10;;;;;;;4.55;100.00;97063.13;4976147;28;20050;-61
2021/11/16 06:08:59;;;;;;;21.48;10.60;;;;;;;4.43;100.00;97061.03;4980608;28;20042;-63
2021/11/16 06:11:27;;;;;;;21.23;9.77;;;;;;;4.25;100.00;97068.34;4974794;28;20539;-62
2021/11/16 06:13:55;;;;;;;22.38;9.82;;;;;;;4.46;100.00;97075.88;4992293;28;20057;-63
2021/11/16 06:16:21;;;;;;;24.02;9.70;;;;;;;4.53;100.00;97063.44;4973986;28;20042;-62
2021/11/16 06:18:55;;;;;;;23.30;9.98;;;;;;;4.51;100.00;97062.16;4979504;28;20115;-63
2021/11/16 06:21:22;;;;;;;20.52;8.88;;;;;;;4.60;100.00;97063.75;4975571;28;20041;-61
2021/11/16 06:23:48;;;;;;;19.92;9.15;;;;;;;4.59;100.00;97059.47;4981295;28;20046;-62
2021/11/16 06:26:14;;;;;;;20.02;8.90;;;;;;;4.57;100.00;97063.59;4975851;28;20045;-62
2021/11/16 06:28:40;;;;;;;21.70;10.38;;;;;;;4.55;100.00;97066.63;4981176;28;20074;-64
2021/11/16 06:31:06;;;;;;;32.85;11.10;;;;;;;4.55;100.00;97072.03;4978538;28;20504;-63
2021/11/16 06:33:32;;;;;;;22.05;9.77;;;;;;;4.58;100.00;97071.41;4985414;28;20057;-64
2021/11/16 06:35:57;;;;;;;17.85;9.15;;;;;;;4.58;100.00;97073.34;4983164;28;20162;-63
2021/11/16 06:38:23;;;;;;;21.90;9.18;;;;;;;4.61;100.00;97072.72;4979583;28;20436;-69
2021/11/16 06:40:48;;;;;;;23.58;9.63;;;;;;;4.72;100.00;97082.13;4984977;28;20042;-63
2021/11/16 06:43:29;;;;;;;22.02;9.48;;;;;;;4.70;100.00;97083.53;4979647;28;20403;-65
2021/11/16 06:45:57;;;;;;;20.50;8.82;;;;;;;4.66;100.00;97085.31;4984878;28;20554;-64
2021/11/16 06:48:23;;;;;;;19.88;9.50;;;;;;;4.57;100.00;97083.41;4979748;28;20061;-63
2021/11/16 06:50:50;;;;;;;24.23;10.57;;;;;;;4.60;100.00;97080.03;4983902;28;20042;-63
2021/11/16 06:53:32;;;;;;;19.73;9.18;;;;;;;4.68;100.00;97085.78;4979996;28;20070;-62
2021/11/16 06:56:00;;;;;;;21.85;10.15;;;;;;;4.72;100.00;97089.47;4983576;28;20247;-67
2021/11/16 06:58:26;;;;;;;23.05;9.98;;;;;;;4.63;100.00;97088.63;4978655;28;20105;-64
2021/11/16 07:00:53;;;;;;;21.45;9.68;;;;;;;4.45;100.00;97085.94;4983708;28;20042;-63
2021/11/16 07:03:20;;;;;;;24.83;10.13;;;;;;;4.49;100.00;97089.59;4979123;28;20132;-64
2021/11/16 07:05:59;;;;;;;20.38;9.38;;;;;;;4.56;100.00;97087.22;4983660;28;20042;-63
2021/11/16 07:08:32;;;;;;;23.15;9.57;;;;;;;4.59;100.00;97083.06;4976897;28;20057;-62
2021/11/16 07:11:19;;;;;;;24.98;10.23;;;;;;;4.69;100.00;97090.88;4982078;28;20046;-63
2021/11/16 07:14:05;;;;;;;27.02;9.93;;;;;;;4.79;100.00;97087.88;4983154;28;20438;-62
2021/11/16 07:16:39;;;;;;;23.63;9.95;;;;;;;4.80;100.00;97094.09;4965669;28;20165;-61
2021/11/16 07:19:10;;;;;;;22.48;10.13;;;;;;;4.58;100.00;97093.13;4978589;28;20053;-62
2021/11/16 07:21:46;;;;;;;23.30;10.00;;;;;;;4.64;100.00;97090.25;4987779;28;20089;-61
2021/11/16 07:24:18;;;;;;;19.58;9.60;;;;;;;4.82;100.00;97099.19;4971088;28;20833;-63
2021/11/16 07:26:53;;;;;;;22.73;10.82;;;;;;;4.85;100.00;97099.34;4980380;28;20116;-64
2021/11/16 07:29:30;;;;;;;20.00;9.38;;;;;;;4.98;100.00;97106.53;4964457;28;20050;-63
2021/11/16 07:31:56;;;;;;;22.38;9.73;;;;;;;5.02;100.00;97105.91;4981926;28;20064;-64
2021/11/16 07:34:22;;;;;;;22.15;10.13;;;;;;;4.93;100.00;97109.44;4977550;28;20881;-63
2021/11/16 07:37:03;;;;;;;20.23;9.35;;;;;;;4.86;100.00;97111.81;4984147;28;20043;-63
2021/11/16 07:39:30;;;;;;;21.13;9.98;;;;;;;4.74;100.00;97115.16;4979079;28;20046;-63
2021/11/16 07:42:07;;;;;;;22.10;10.75;;;;;;;4.80;100.00;97115.78;4982663;28;20042;-65
2021/11/16 07:44:34;;;;;;;24.85;10.27;;;;;;;4.68;100.00;97115.63;4982984;28;20078;-63
2021/11/16 07:47:00;;;;;;;20.45;9.15;;;;;;;4.62;100.00;97117.69;4984167;28;20122;-63
2021/11/16 07:49:26;;;;;;;30.23;15.05;;;;;;;4.74;100.00;97108.94;4978573;28;20467;-63
2021/11/16 07:51:54;;;;;;;26.55;12.75;;;;;;;4.75;100.00;97119.47;4986352;28;20080;-64
2021/11/16 07:54:21;;;;;;;25.25;10.30;;;;;;;4.75;100.00;97110.53;4977041;28;20042;-63
2021/11/16 07:56:47;;;;;;;25.02;11.93;;;;;;;4.92;100.00;97107.03;4975951;28;20126;-63
2021/11/16 07:59:14;;;;;;;22.88;9.20;;;;;;;4.80;100.00;97110.38;4973313;28;20141;-63
2021/11/16 08:04:21;;;;;;;20.58;9.35;;;;;;;4.84;100.00;97115.97;4978788;28;20089;-63
2021/11/16 08:07:43;;;;;;;22.08;10.50;;;;;;;4.91;100.00;97117.06;4982177;28;20404;-62
2021/11/16 08:09:50;;;;;;;26.35;9.93;;;;;;;4.84;100.00;97122.19;4975124;28;20054;-64
2021/11/16 08:14:46;;;;;;;23.17;10.85;;;;;;;4.92;100.00;97117.88;4963492;28;20054;-62
2021/11/16 08:17:13;;;;;;;24.30;9.70;;;;;;;4.98;100.00;97113.88;4956220;28;20039;-64
2021/11/16 08:19:40;;;;;;;19.63;8.85;;;;;;;5.09;100.00;97122.50;4968933;28;20046;-63
2021/11/16 08:22:10;;;;;;;18.10;8.43;;;;;;;5.17;100.00;97119.00;4975762;28;20050;-64
2021/11/16 08:24:39;;;;;;;20.75;9.13;;;;;;;5.26;100.00;97119.00;4971360;28;20141;-64
2021/11/16 08:27:25;;;;;;;23.83;9.02;;;;;;;5.21;100.00;97108.28;4972828;28;20495;-60
2021/11/16 08:29:59;;;;;;;20.63;10.30;;;;;;;5.30;100.00;97107.16;4980820;28;20054;-61
2021/11/16 08:32:33;;;;;;;18.88;9.27;;;;;;;5.42;100.00;97108.41;4972161;28;20046;-64
2021/11/16 08:35:00;;;;;;;18.70;8.35;;;;;;;5.44;100.00;97115.13;4979587;28;20340;-63
2021/11/16 08:37:37;;;;;;;25.45;9.48;;;;;;;5.48;100.00;97112.56;4976423;28;20051;-62
2021/11/16 08:40:08;;;;;;;19.58;8.52;;;;;;;5.53;100.00;97106.97;4980878;28;20077;-61
2021/11/16 08:42:40;;;;;;;18.10;8.98;;;;;;;5.62;100.00;97105.00;4983119;28;20100;-63
2021/11/16 08:45:18;;;;;;;18.17;8.43;;;;;;;5.70;100.00;97104.16;4974530;28;20649;-62
2021/11/16 08:47:47;;;;;;;19.60;8.82;;;;;;;5.68;100.00;97100.19;4988055;28;20046;-63
2021/11/16 08:50:23;;;;;;;18.03;7.93;;;;;;;5.85;100.00;97099.31;4970533;28;20488;-64
2021/11/16 08:52:49;;;;;;;15.20;8.05;;;;;;;5.84;100.00;97106.69;4981838;28;20049;-64
2021/11/16 08:55:19;;;;;;;17.45;9.02;;;;;;;5.89;100.00;97106.50;4976143;28;20046;-63
2021/11/16 08:57:48;;;;;;;17.27;8.05;;;;;;;5.93;100.00;97107.44;4981676;28;20123;-63
2021/11/16 09:00:24;;;;;;;17.05;7.53;;;;;;;5.52;100.00;97099.91;4976927;28;20038;-63
2021/11/16 09:03:00;;;;;;;18.10;7.15;;;;;;;5.80;100.00;97107.66;4977423;28;20144;-64
2021/11/16 09:05:31;;;;;;;13.73;6.45;;;;;;;5.84;100.00;97106.69;4969956;28;20046;-63
2021/11/16 09:07:57;;;;;;;16.08;7.13;;;;;;;5.82;100.00;97105.44;4982500;28;20042;-63
2021/11/16 09:10:44;;;;;;;15.93;6.80;;;;;;;5.79;100.00;97106.06;4976245;28;20990;-60
2021/11/16 09:13:13;;;;;;;12.82;6.28;;;;;;;5.72;100.00;97112.78;4976454;28;20100;-64
2021/11/16 09:15:51;;;;;;;13.23;5.95;;;;;;;5.99;100.00;97110.03;4981484;28;20500;-64
2021/11/16 09:18:22;;;;;;;14.98;7.20;;;;;;;5.86;99.29;97109.88;4967944;28;20046;-63
2021/11/16 09:20:58;;;;;;;13.18;7.45;;;;;;;5.62;100.00;97112.34;4982387;28;20069;-63
2021/11/16 09:23:32;;;;;;;11.82;6.50;;;;;;;5.54;100.00;97112.03;4976660;28;20046;-64
2021/11/16 09:28:54;;;;;;;13.80;6.20;;;;;;;5.85;99.04;97104.75;4969610;28;20061;-64
2021/11/16 09:31:30;;;;;;;15.75;7.43;;;;;;;5.86;99.47;97120.75;4971682;28;20411;-66
2021/11/16 09:34:04;;;;;;;15.73;7.35;;;;;;;5.68;99.13;97117.28;4978768;28;20531;-61
2021/11/16 09:36:37;;;;;;;13.45;7.18;;;;;;;5.88;99.19;97123.94;4977380;28;20042;-63
2021/11/16 09:39:17;;;;;;;15.50;7.68;;;;;;;5.98;99.24;97116.56;4976839;28;20057;-63
2021/11/16 09:41:54;;;;;;;16.38;8.05;;;;;;;5.88;98.83;97128.59;4969461;28;20085;-64
2021/11/16 09:44:26;;;;;;;13.88;7.38;;;;;;;5.72;99.74;97134.53;4973409;28;20046;-64
2021/11/16 09:47:17;;;;;;;13.77;6.93;;;;;;;5.84;99.41;97142.03;4980889;28;20046;-63
2021/11/16 09:50:05;;;;;;;13.68;7.25;;;;;;;5.81;99.54;97139.16;4972667;28;20411;-60
2021/11/16 09:52:45;;;;;;;22.55;9.13;;;;;;;5.72;99.63;97137.25;4967496;28;20611;-64
2021/11/16 09:55:29;;;;;;;14.40;7.40;;;;;;;5.55;100.00;97134.59;4975370;28;20078;-63
2021/11/16 09:57:59;;;;;;;17.77;7.53;;;;;;;5.38;100.00;97138.13;4978267;28;20126;-62
2021/11/16 10:00:34;;;;;;;17.75;8.38;;;;;;;5.47;100.00;97140.84;4972910;28;20149;-63
2021/11/16 10:02:59;;;;;;;14.93;7.32;;;;;;;5.66;100.00;97133.13;4976373;28;20043;-62
2021/11/16 10:05:26;;;;;;;15.00;6.25;;;;;;;5.69;100.00;97132.47;4972797;28;20053;-64
2021/11/16 10:07:59;;;;;;;12.95;6.38;;;;;;;5.57;100.00;97139.72;4976752;28;20076;-63
2021/11/16 10:10:31;;;;;;;18.48;9.50;;;;;;;5.73;100.00;97135.34;4973134;28;20046;-63
2021/11/16 10:12:59;;;;;;;15.77;7.68;;;;;;;5.68;100.00;97135.53;4981004;28;20092;-64
2021/11/16 10:15:29;;;;;;;15.90;7.38;;;;;;;5.63;100.00;97136.47;4976716;28;20050;-63
2021/11/16 10:17:59;;;;;;;16.25;7.45;;;;;;;5.60;100.00;97139.03;4987070;28;20038;-64
2021/11/16 10:20:27;;;;;;;15.55;6.65;;;;;;;5.45;100.00;97141.16;4983204;28;20492;-63
2021/11/16 10:22:57;;;;;;;15.25;8.05;;;;;;;5.59;100.00;97132.03;4980086;28;20050;-62
2021/11/16 10:25:25;;;;;;;15.20;7.00;;;;;;;5.34;100.00;97135.25;4972713;28;20815;-62
2021/11/16 10:27:53;;;;;;;14.38;7.55;;;;;;;5.31;100.00;97126.94;4978251;28;20053;-63
2021/11/16 10:30:21;;;;;;;16.48;7.75;;;;;;;5.31;100.00;97125.06;4974012;28;20046;-61
2021/11/16 10:33:13;;;;;;;20.52;11.55;;;;;;;5.45;100.00;97134.94;4986301;28;20042;-63
2021/11/16 10:35:40;;;;;;;18.70;8.85;;;;;;;5.47;100.00;97119.09;4986851;28;20100;-64
2021/11/16 10:38:09;;;;;;;16.10;7.45;;;;;;;5.51;100.00;97120.84;4975040;28;20038;-63
2021/11/16 10:40:36;;;;;;;21.47;9.33;;;;;;;5.59;100.00;97115.72;4974285;28;20059;-63
2021/11/16 10:43:03;;;;;;;15.35;8.00;;;;;;;5.59;100.00;97105.66;4978695;28;20038;-64
2021/11/16 10:45:32;;;;;;;15.18;7.30;;;;;;;5.54;100.00;97112.03;4975958;28;20582;-63
2021/11/16 10:48:00;;;;;;;17.10;7.23;;;;;;;5.56;100.00;97109.00;4979610;28;20144;-62
2021/11/16 10:50:29;;;;;;;13.32;7.18;;;;;;;5.60;100.00;97109.16;4972812;28;20538;-63
2021/11/16 10:53:02;;;;;;;14.10;7.28;;;;;;;5.59;100.00;97096.72;4979432;28;20045;-63
2021/11/16 10:55:55;;;;;;;17.08;8.00;;;;;;;5.69;100.00;97102.59;4969955;28;20046;-63
2021/11/16 10:58:22;;;;;;;15.82;7.55;;;;;;;5.64;100.00;97101.97;4970846;28;20918;-63
2021/11/16 11:00:59;;;;;;;15.55;7.30;;;;;;;5.51;100.00;97099.13;4978236;28;20388;-63
2021/11/16 11:03:42;;;;;;;19.23;7.72;;;;;;;5.49;100.00;97089.69;4979847;28;20061;-63
2021/11/16 11:06:11;;;;;;;16.25;7.43;;;;;;;5.45;100.00;97096.91;4975807;28;20054;-64
2021/11/16 11:08:51;;;;;;;18.67;8.05;;;;;;;5.49;100.00;97089.69;4986180;28;20618;-65
2021/11/16 11:11:20;;;;;;;17.52;8.50;;;;;;;5.60;100.00;97087.41;4968650;28;20050;-64
2021/11/16 11:13:51;;;;;;;17.42;9.15;;;;;;;5.58;100.00;97086.94;4983449;28;20072;-64
2021/11/16 11:16:18;;;;;;;18.35;8.65;;;;;;;5.38;100.00;97083.00;4981624;28;20038;-63
2021/11/16 11:18:48;;;;;;;18.60;8.20;;;;;;;5.52;100.00;97081.69;4985146;28;20042;-63
2021/11/16 11:21:24;;;;;;;;;;;;;;;5.48;100.00;97080.75;4985372;28;20399;-64
2021/11/16 11:23:54;;;;;;;27.55;12.27;;;;;;;5.57;100.00;97080.72;4980262;28;19994;-61
2021/11/16 11:26:34;;;;;;;;;;;;;;;5.61;100.00;97078.94;4972045;28;20120;-65
2021/11/16 11:29:17;;;;;;;22.52;10.60;;;;;;;5.70;100.00;97076.19;4986444;28;19940;-63
2021/11/16 11:31:44;;;;;;;23.35;11.75;;;;;;;5.83;100.00;97068.94;4981892;28;20046;-62
2021/11/16 11:34:12;;;;;;;19.05;8.55;;;;;;;6.03;99.09;97070.97;4976843;28;20508;-63
2021/11/16 11:36:38;;;;;;;15.60;7.95;;;;;;;6.11;98.80;97061.97;4982411;28;20120;-63
2021/11/16 11:39:23;;;;;;;15.43;7.65;;;;;;;6.15;99.33;97070.28;4978463;28;20050;-64
2021/11/16 11:41:55;;;;;;;21.73;11.30;;;;;;;6.27;100.00;97059.47;4981493;28;20129;-63
2021/11/16 11:44:21;;;;;;;16.65;7.95;;;;;;;6.31;99.04;97062.34;4977037;28;20041;-62
2021/11/16 11:46:54;;;;;;;16.50;7.97;;;;;;;6.27;98.50;97064.91;4980985;28;20050;-64
2021/11/16 11:49:20;;;;;;;14.43;6.97;;;;;;;5.94;98.35;97054.69;4976766;28;20097;-64
2021/11/16 11:51:47;;;;;;;15.27;7.45;;;;;;;5.94;99.58;97054.69;4978363;28;20046;-64